Time,TemperatureF,DewpointF,PressureIn,WindDirection,WindDirectionDegrees,WindSpeedMPH,WindSpeedGustMPH,Humidity,HourlyPrecipIn,Conditions,Clouds,dailyrainin,SoftwareType,DateUTC
2013-02-15 00:05:00,38.5,29.0,29.96,South,174,1.0,3.0,70,0.00,,,0.00,weatherlink.com 1.10,2013-02-15 05:05:00,
2013-02-15 00:20:00,38.2,29.0,29.96,South,174,0.0,2.0,70,0.00,,,0.00,weatherlink.com 1.10,2013-02-15 05:20:00,
2013-02-15 00:35:00,38.0,29.0,29.97,South,175,1.0,5.0,70,0.00,,,0.00,weatherlink.com 1.10,2013-02-15 05:35:00,
2013-02-15 00:50:00,38.1,29.0,29.97,South,174,0.0,5.0,71,0.00,,,0.00,weatherlink.com 1.10,2013-02-15 05:50:00,
2013-02-15 01:05:00,38.1,29.0,29.97,South,174,0.0,6.0,71,0.00,,,0.00,weatherlink.com 1.10,2013-02-15 06:05:00,
2013-02-15 01:20:00,38.1,29.0,29.97,South,174,0.0,4.0,71,0.00,,,0.00,weatherlink.com 1.10,2013-02-15 06:20:00,
2013-02-15 01:35:00,38.0,29.0,29.98,SSE,168,1.0,10.0,71,0.00,,,0.00,weatherlink.com 1.10,2013-02-15 06:35:00,
2013-02-15 01:50:00,37.9,30.0,29.97,SSE,167,0.0,4.0,72,0.00,,,0.00,weatherlink.com 1.10,2013-02-15 06:50:00,
2013-02-15 02:05:00,37.7,29.0,29.97,SSE,167,0.0,4.0,72,0.00,,,0.00,weatherlink.com 1.10,2013-02-15 07:05:00,
2013-02-15 02:20:00,37.6,29.0,29.97,SSE,168,0.0,4.0,72,0.00,,,0.00,weatherlink.com 1.10,2013-02-15 07:20:00,
2013-02-15 02:36:00,37.5,29.0,29.96,SSE,168,0.0,3.0,72,0.00,,,0.00,weatherlink.com 1.10,2013-02-15 07:36:00,
2013-02-15 02:50:00,37.6,29.0,29.96,SSE,167,0.0,3.0,72,0.00,,,0.00,weatherlink.com 1.10,2013-02-15 07:50:00,
2013-02-15 03:05:00,37.5,29.0,29.96,SSE,167,0.0,5.0,72,0.00,,,0.00,weatherlink.com 1.10,2013-02-15 08:05:00,
2013-02-15 03:20:00,37.5,29.0,29.96,SSE,167,0.0,2.0,72,0.00,,,0.00,weatherlink.com 1.10,2013-02-15 08:20:00,
2013-02-15 03:36:00,37.6,29.0,29.95,SSE,168,0.0,2.0,71,0.00,,,0.00,weatherlink.com 1.10,2013-02-15 08:36:00,
2013-02-15 03:51:00,37.4,29.0,29.96,SSE,168,0.0,3.0,72,0.00,,,0.00,weatherlink.com 1.10,2013-02-15 08:51:00,
2013-02-15 04:06:00,37.7,29.0,29.96,SSE,168,0.0,3.0,72,0.00,,,0.00,weatherlink.com 1.10,2013-02-15 09:06:00,
2013-02-15 04:21:00,38.0,29.0,29.96,South,169,0.0,6.0,71,0.00,,,0.00,weatherlink.com 1.10,2013-02-15 09:21:00,
2013-02-15 04:36:00,38.2,29.0,29.96,South,169,0.0,5.0,70,0.00,,,0.00,weatherlink.com 1.10,2013-02-15 09:36:00,
2013-02-15 04:51:00,38.1,29.0,29.96,South,169,0.0,4.0,71,0.00,,,0.00,weatherlink.com 1.10,2013-02-15 09:51:00,
2013-02-15 05:06:00,38.1,29.0,29.96,South,169,1.0,4.0,71,0.00,,,0.00,weatherlink.com 1.10,2013-02-15 10:06:00,
2013-02-15 05:21:00,37.9,29.0,29.96,South,169,1.0,4.0,71,0.00,,,0.00,weatherlink.com 1.10,2013-02-15 10:21:00,
2013-02-15 05:36:00,37.9,29.0,29.96,South,169,0.0,5.0,71,0.00,,,0.00,weatherlink.com 1.10,2013-02-15 10:36:00,
2013-02-15 05:51:00,38.0,29.0,29.96,South,169,2.0,5.0,71,0.00,,,0.00,weatherlink.com 1.10,2013-02-15 10:51:00,
2013-02-15 06:06:00,37.8,29.0,29.96,South,169,2.0,4.0,71,0.00,,,0.00,weatherlink.com 1.10,2013-02-15 11:06:00,
2013-02-15 06:21:00,37.6,29.0,29.96,South,169,3.0,6.0,72,0.00,,,0.00,weatherlink.com 1.10,2013-02-15 11:21:00,
2013-02-15 06:36:00,38.0,29.0,29.97,South,169,2.0,3.0,71,0.00,,,0.00,weatherlink.com 1.10,2013-02-15 11:36:00,
2013-02-15 06:51:00,37.7,29.0,29.98,South,170,2.0,6.0,71,0.00,,,0.00,weatherlink.com 1.10,2013-02-15 11:51:00,
2013-02-15 07:06:00,37.8,30.0,29.98,South,170,1.0,6.0,72,0.00,,,0.00,weatherlink.com 1.10,2013-02-15 12:06:00,
2013-02-15 07:21:00,37.5,30.0,29.98,South,170,4.0,7.0,73,0.00,,,0.00,weatherlink.com 1.10,2013-02-15 12:21:00,
2013-02-15 07:37:00,37.7,29.0,29.99,South,170,4.0,7.0,72,0.00,,,0.00,weatherlink.com 1.10,2013-02-15 12:37:00,
2013-02-15 07:51:00,37.6,29.0,29.99,South,170,3.0,9.0,72,0.00,,,0.00,weatherlink.com 1.10,2013-02-15 12:51:00,
2013-02-15 08:06:00,37.8,29.0,29.99,South,173,4.0,6.0,71,0.00,,,0.00,weatherlink.com 1.10,2013-02-15 13:06:00,
2013-02-15 08:21:00,38.8,29.0,29.99,SSE,167,4.0,9.0,68,0.00,,,0.00,weatherlink.com 1.10,2013-02-15 13:21:00,
2013-02-15 08:36:00,39.8,29.0,29.99,South,169,3.0,7.0,65,0.00,,,0.00,weatherlink.com 1.10,2013-02-15 13:36:00,
2013-02-15 08:52:00,40.6,29.0,30.00,South,170,2.0,5.0,63,0.00,,,0.00,weatherlink.com 1.10,2013-02-15 13:52:00,
2013-02-15 09:07:00,42.0,29.0,30.00,South,170,0.0,5.0,61,0.00,,,0.00,weatherlink.com 1.10,2013-02-15 14:07:00,
2013-02-15 09:37:00,44.5,31.0,30.00,South,170,1.0,6.0,59,0.00,,,0.00,weatherlink.com 1.10,2013-02-15 14:37:00,
2013-02-15 09:52:00,45.8,30.0,30.00,South,170,0.0,5.0,55,0.00,,,0.00,weatherlink.com 1.10,2013-02-15 14:52:00,
2013-02-15 10:07:00,46.3,29.0,29.99,South,172,1.0,5.0,52,0.00,,,0.00,weatherlink.com 1.10,2013-02-15 15:07:00,
2013-02-15 10:22:00,46.8,30.0,29.99,South,173,4.0,6.0,53,0.00,,,0.00,weatherlink.com 1.10,2013-02-15 15:22:00,
2013-02-15 10:37:00,46.5,30.0,29.99,South,175,3.0,8.0,52,0.00,,,0.00,weatherlink.com 1.10,2013-02-15 15:37:00,
2013-02-15 10:52:00,47.3,29.0,29.99,South,169,3.0,13.0,49,0.00,,,0.00,weatherlink.com 1.10,2013-02-15 15:52:00,
2013-02-15 11:07:00,47.5,30.0,29.99,South,169,3.0,12.0,50,0.00,,,0.00,weatherlink.com 1.10,2013-02-15 16:07:00,
2013-02-15 11:22:00,47.3,30.0,29.99,South,173,0.0,12.0,51,0.00,,,0.00,weatherlink.com 1.10,2013-02-15 16:22:00,
2013-02-15 11:37:00,47.8,29.0,29.98,South,174,1.0,8.0,48,0.00,,,0.00,weatherlink.com 1.10,2013-02-15 16:37:00,
2013-02-15 11:52:00,48.7,30.0,29.98,South,169,2.0,12.0,49,0.00,,,0.00,weatherlink.com 1.10,2013-02-15 16:52:00,
2013-02-15 12:07:00,49.0,28.0,29.97,SSE,167,4.0,9.0,44,0.00,,,0.00,weatherlink.com 1.10,2013-02-15 17:07:00,
2013-02-15 12:22:00,48.3,28.0,29.97,South,181,1.0,7.0,46,0.00,,,0.00,weatherlink.com 1.10,2013-02-15 17:22:00,
2013-02-15 12:37:00,47.6,28.0,29.96,South,177,2.0,10.0,47,0.00,,,0.00,weatherlink.com 1.10,2013-02-15 17:37:00,
2013-02-15 12:52:00,48.0,29.0,29.95,South,173,2.0,13.0,48,0.00,,,0.00,weatherlink.com 1.10,2013-02-15 17:52:00,
2013-02-15 13:07:00,49.5,29.0,29.95,SSE,167,3.0,11.0,45,0.00,,,0.00,weatherlink.com 1.10,2013-02-15 18:07:00,
2013-02-15 13:22:00,53.6,31.0,29.94,South,176,3.0,5.0,42,0.00,,,0.00,weatherlink.com 1.10,2013-02-15 18:22:00,
2013-02-15 13:37:00,54.5,28.0,29.93,SSE,166,4.0,11.0,36,0.00,,,0.00,weatherlink.com 1.10,2013-02-15 18:37:00,
2013-02-15 13:52:00,54.0,30.0,29.93,South,174,3.0,8.0,40,0.00,,,0.00,weatherlink.com 1.10,2013-02-15 18:52:00,
2013-02-15 14:07:00,55.3,29.0,29.92,South,176,4.0,10.0,36,0.00,,,0.00,weatherlink.com 1.10,2013-02-15 19:07:00,
2013-02-15 14:22:00,54.0,29.0,29.91,South,173,3.0,7.0,38,0.00,,,0.00,weatherlink.com 1.10,2013-02-15 19:22:00,
2013-02-15 14:38:00,51.0,28.0,29.90,South,173,1.0,6.0,41,0.00,,,0.00,weatherlink.com 1.10,2013-02-15 19:38:00,
2013-02-15 14:52:00,49.7,28.0,29.90,South,173,2.0,7.0,43,0.00,,,0.00,weatherlink.com 1.10,2013-02-15 19:52:00,
2013-02-15 15:07:00,49.2,29.0,29.89,South,170,3.0,9.0,45,0.00,,,0.00,weatherlink.com 1.10,2013-02-15 20:07:00,
2013-02-15 15:22:00,49.1,30.0,29.89,South,173,4.0,10.0,48,0.00,,,0.00,weatherlink.com 1.10,2013-02-15 20:22:00,
2013-02-15 15:37:00,49.4,30.0,29.89,South,170,2.0,8.0,47,0.00,,,0.00,weatherlink.com 1.10,2013-02-15 20:37:00,
2013-02-15 15:53:00,49.7,31.0,29.89,South,170,0.0,6.0,48,0.00,,,0.00,weatherlink.com 1.10,2013-02-15 20:53:00,
2013-02-15 16:08:00,49.1,30.0,29.89,South,173,1.0,6.0,48,0.00,,,0.00,weatherlink.com 1.10,2013-02-15 21:08:00,
2013-02-15 16:22:00,48.9,31.0,29.89,South,176,1.0,11.0,50,0.00,,,0.00,weatherlink.com 1.10,2013-02-15 21:22:00,
2013-02-15 16:37:00,49.3,31.0,29.89,South,170,2.0,4.0,49,0.00,,,0.00,weatherlink.com 1.10,2013-02-15 21:37:00,
2013-02-15 16:53:00,46.7,32.0,29.89,South,179,1.0,7.0,58,0.00,,,0.00,weatherlink.com 1.10,2013-02-15 21:53:00,
2013-02-15 17:07:00,45.2,34.0,29.89,South,176,0.0,6.0,64,0.00,,,0.00,weatherlink.com 1.10,2013-02-15 22:07:00,
2013-02-15 17:22:00,44.7,33.0,29.89,South,176,0.0,4.0,65,0.00,,,0.00,weatherlink.com 1.10,2013-02-15 22:22:00,
2013-02-15 17:37:00,44.0,33.0,29.89,South,177,3.0,5.0,65,0.00,,,0.00,weatherlink.com 1.10,2013-02-15 22:37:00,
2013-02-15 17:53:00,43.5,33.0,29.89,South,176,2.0,6.0,67,0.00,,,0.00,weatherlink.com 1.10,2013-02-15 22:53:00,
2013-02-15 18:08:00,42.7,34.0,29.89,South,175,1.0,7.0,71,0.00,,,0.00,weatherlink.com 1.10,2013-02-15 23:08:00,
2013-02-15 18:23:00,41.6,34.0,29.90,South,174,1.0,7.0,74,0.00,,,0.00,weatherlink.com 1.10,2013-02-15 23:23:00,
2013-02-15 18:38:00,40.6,34.0,29.90,South,170,3.0,10.0,78,0.00,,,0.00,weatherlink.com 1.10,2013-02-15 23:38:00,
2013-02-15 18:53:00,40.0,34.0,29.90,South,170,4.0,11.0,80,0.00,,,0.00,weatherlink.com 1.10,2013-02-15 23:53:00,
2013-02-15 19:08:00,38.9,35.0,29.91,South,173,3.0,8.0,85,0.00,,,0.00,weatherlink.com 1.10,2013-02-16 00:08:00,
2013-02-15 19:23:00,38.0,34.0,29.90,South,174,1.0,7.0,85,0.00,,,0.00,weatherlink.com 1.10,2013-02-16 00:23:00,
2013-02-15 19:53:00,36.9,33.0,29.91,South,169,2.0,14.0,85,0.00,,,0.00,weatherlink.com 1.10,2013-02-16 00:53:00,
2013-02-15 20:08:00,36.6,32.0,29.91,South,174,3.0,7.0,84,0.00,,,0.00,weatherlink.com 1.10,2013-02-16 01:08:00,
2013-02-15 20:23:00,36.0,32.0,29.91,South,173,2.0,9.0,85,0.00,,,0.00,weatherlink.com 1.10,2013-02-16 01:23:00,
2013-02-15 20:38:00,35.5,32.0,29.90,South,174,3.0,9.0,86,0.00,,,0.00,weatherlink.com 1.10,2013-02-16 01:38:00,
2013-02-15 20:53:00,35.1,31.0,29.91,South,174,2.0,14.0,85,0.00,,,0.00,weatherlink.com 1.10,2013-02-16 01:53:00,
2013-02-15 21:08:00,34.6,30.0,29.91,South,174,1.0,8.0,84,0.00,,,0.00,weatherlink.com 1.10,2013-02-16 02:08:00,
2013-02-15 21:23:00,34.4,29.0,29.91,South,172,2.0,8.0,82,0.00,,,0.00,weatherlink.com 1.10,2013-02-16 02:23:00,
2013-02-15 21:38:00,34.3,29.0,29.91,South,173,0.0,7.0,80,0.00,,,0.00,weatherlink.com 1.10,2013-02-16 02:38:00,
2013-02-15 21:53:00,34.0,28.0,29.91,South,174,6.0,8.0,80,0.00,,,0.00,weatherlink.com 1.10,2013-02-16 02:53:00,
2013-02-15 22:08:00,33.7,28.0,29.91,South,173,1.0,8.0,79,0.00,,,0.00,weatherlink.com 1.10,2013-02-16 03:08:00,
2013-02-15 22:23:00,33.1,28.0,29.90,South,173,2.0,10.0,82,0.00,,,0.00,weatherlink.com 1.10,2013-02-16 03:23:00,
2013-02-15 22:38:00,32.5,29.0,29.90,South,170,2.0,9.0,85,0.00,,,0.00,weatherlink.com 1.10,2013-02-16 03:38:00,
2013-02-15 22:54:00,32.0,29.0,29.90,South,175,1.0,7.0,87,0.00,,,0.00,weatherlink.com 1.10,2013-02-16 03:54:00,
2013-02-15 23:08:00,31.9,29.0,29.89,South,176,2.0,13.0,87,0.00,,,0.00,weatherlink.com 1.10,2013-02-16 04:08:00,
2013-02-15 23:23:00,31.6,29.0,29.89,South,174,5.0,16.0,88,0.00,,,0.00,weatherlink.com 1.10,2013-02-16 04:23:00,
2013-02-15 23:38:00,31.0,28.0,29.89,South,176,2.0,11.0,89,0.00,,,0.00,weatherlink.com 1.10,2013-02-16 04:38:00,
2013-02-15 23:54:00,30.5,28.0,29.89,South,174,3.0,11.0,89,0.00,,,0.00,weatherlink.com 1.10,2013-02-16 04:54:00,